Willaston, United Kingdom
Current Conditions -  °F | °C
As of 11:50 PM on Sunday 23 Nov 2014 (Local Time) from EGOS Reporting Station
Clear Clear  
Wind Chill: 32°   Ceiling: Unl
Heat Index: 36°   Visibility: 6mi
Dew Point: 34°   Wind: 5mph
Humidity: 93%   Direction: 210°SSW
Pressure: 30.18"   Gusts: NA
Location:  53.07°N, 2.48°W
Report Text: EGOS 232350Z AUTO 21004KT 9999 NCD 02/01 Q1022
Loading
Personal Weather Stations






























Interactive Weather Map New forecast layout! Learn more

10-Day Weather Forecast

Advertisements
Track Severe Weather on mobile